sensor_id;sensor_type;location;lat;lon;timestamp;pressure;altitude;pressure_sealevel;temperature;humidity
65997;BME280;52765;52.258;21.052;2023-01-28T00:01:41;101390.16;;;1.34;100.00
65997;BME280;52765;52.258;21.052;2023-01-28T00:04:07;101390.38;;;1.29;100.00
65997;BME280;52765;52.258;21.052;2023-01-28T00:06:32;101377.47;;;1.22;100.00
65997;BME280;52765;52.258;21.052;2023-01-28T00:08:58;101382.03;;;1.18;100.00
65997;BME280;52765;52.258;21.052;2023-01-28T00:11:25;101384.53;;;1.21;100.00
65997;BME280;52765;52.258;21.052;2023-01-28T00:13:51;101386.34;;;1.21;100.00
65997;BME280;52765;52.258;21.052;2023-01-28T00:16:17;101389.84;;;1.21;100.00
65997;BME280;52765;52.258;21.052;2023-01-28T00:18:43;101397.41;;;1.31;100.00
65997;BME280;52765;52.258;21.052;2023-01-28T00:21:12;101389.22;;;1.35;100.00
65997;BME280;52765;52.258;21.052;2023-01-28T00:23:39;101391.88;;;1.35;100.00
65997;BME280;52765;52.258;21.052;2023-01-28T00:26:11;101382.91;;;1.38;100.00
65997;BME280;52765;52.258;21.052;2023-01-28T00:28:39;101387.44;;;1.36;100.00
65997;BME280;52765;52.258;21.052;2023-01-28T00:31:15;101388.06;;;1.41;100.00
65997;BME280;52765;52.258;21.052;2023-01-28T00:33:42;101386.25;;;1.41;100.00
65997;BME280;52765;52.258;21.052;2023-01-28T00:36:07;101385.41;;;1.41;100.00
65997;BME280;52765;52.258;21.052;2023-01-28T00:38:33;101391.56;;;1.41;100.00
65997;BME280;52765;52.258;21.052;2023-01-28T00:41:12;101390.72;;;1.41;100.00
65997;BME280;52765;52.258;21.052;2023-01-28T00:43:39;101394.16;;;1.43;100.00
65997;BME280;52765;52.258;21.052;2023-01-28T00:46:06;101381.84;;;1.42;100.00
65997;BME280;52765;52.258;21.052;2023-01-28T00:48:34;101392.47;;;1.42;100.00
65997;BME280;52765;52.258;21.052;2023-01-28T00:50:59;101385.69;;;1.35;100.00
65997;BME280;52765;52.258;21.052;2023-01-28T00:53:25;101390.28;;;1.31;100.00
65997;BME280;52765;52.258;21.052;2023-01-28T00:55:51;101376.31;;;1.27;100.00
65997;BME280;52765;52.258;21.052;2023-01-28T00:58:17;101384.34;;;1.26;100.00
65997;BME280;52765;52.258;21.052;2023-01-28T01:00:43;101377.97;;;1.30;100.00
65997;BME280;52765;52.258;21.052;2023-01-28T01:03:09;101384.19;;;1.29;100.00
65997;BME280;52765;52.258;21.052;2023-01-28T01:05:34;101375.38;;;1.28;100.00
65997;BME280;52765;52.258;21.052;2023-01-28T01:08:00;101381.91;;;1.40;100.00
65997;BME280;52765;52.258;21.052;2023-01-28T01:10:25;101369.19;;;1.47;100.00
65997;BME280;52765;52.258;21.052;2023-01-28T01:12:51;101385.22;;;1.45;100.00
65997;BME280;52765;52.258;21.052;2023-01-28T01:15:17;101386.75;;;1.50;100.00
65997;BME280;52765;52.258;21.052;2023-01-28T01:17:49;101384.09;;;1.50;100.00
65997;BME280;52765;52.258;21.052;2023-01-28T01:20:21;101376.78;;;1.55;100.00
65997;BME280;52765;52.258;21.052;2023-01-28T01:22:47;101390.00;;;1.56;100.00
65997;BME280;52765;52.258;21.052;2023-01-28T01:25:14;101386.63;;;1.53;100.00
65997;BME280;52765;52.258;21.052;2023-01-28T01:27:40;101384.09;;;1.50;100.00
65997;BME280;52765;52.258;21.052;2023-01-28T01:30:07;101378.81;;;1.50;100.00
65997;BME280;52765;52.258;21.052;2023-01-28T01:32:34;101373.56;;;1.48;100.00
65997;BME280;52765;52.258;21.052;2023-01-28T01:35:00;101380.59;;;1.49;100.00
65997;BME280;52765;52.258;21.052;2023-01-28T01:37:26;101372.72;;;1.47;100.00
65997;BME280;52765;52.258;21.052;2023-01-28T01:39:52;101365.44;;;1.51;100.00
65997;BME280;52765;52.258;21.052;2023-01-28T01:42:17;101372.50;;;1.52;100.00
65997;BME280;52765;52.258;21.052;2023-01-28T01:44:56;101380.97;;;1.60;100.00
65997;BME280;52765;52.258;21.052;2023-01-28T01:47:59;101381.72;;;1.62;100.00
65997;BME280;52765;52.258;21.052;2023-01-28T01:50:33;101378.31;;;1.60;100.00
65997;BME280;52765;52.258;21.052;2023-01-28T01:53:08;101378.31;;;1.60;100.00
65997;BME280;52765;52.258;21.052;2023-01-28T01:55:38;101376.44;;;1.62;100.00
65997;BME280;52765;52.258;21.052;2023-01-28T01:58:11;101373.13;;;1.57;100.00
65997;BME280;52765;52.258;21.052;2023-01-28T02:00:40;101367.13;;;1.54;100.00
65997;BME280;52765;52.258;21.052;2023-01-28T02:03:06;101379.59;;;1.52;100.00
65997;BME280;52765;52.258;21.052;2023-01-28T02:05:32;101383.25;;;1.49;100.00
65997;BME280;52765;52.258;21.052;2023-01-28T02:07:58;101380.75;;;1.46;100.00
65997;BME280;52765;52.258;21.052;2023-01-28T02:10:44;101379.91;;;1.45;100.00
65997;BME280;52765;52.258;21.052;2023-01-28T02:13:12;101386.56;;;1.54;100.00
65997;BME280;52765;52.258;21.052;2023-01-28T02:15:38;101378.50;;;1.56;100.00
65997;BME280;52765;52.258;21.052;2023-01-28T02:18:04;101390.94;;;1.55;100.00
65997;BME280;52765;52.258;21.052;2023-01-28T02:29:19;101391.66;;;1.59;100.00
65997;BME280;52765;52.258;21.052;2023-01-28T02:31:54;101395.16;;;1.59;100.00
65997;BME280;52765;52.258;21.052;2023-01-28T02:34:35;101386.28;;;1.60;100.00
65997;BME280;52765;52.258;21.052;2023-01-28T02:37:12;101382.66;;;1.61;100.00
65997;BME280;52765;52.258;21.052;2023-01-28T02:39:51;101390.47;;;1.64;100.00
65997;BME280;52765;52.258;21.052;2023-01-28T02:42:29;101392.56;;;1.58;100.00
65997;BME280;52765;52.258;21.052;2023-01-28T02:44:56;101394.31;;;1.59;100.00
65997;BME280;52765;52.258;21.052;2023-01-28T02:47:21;101384.69;;;1.56;100.00
65997;BME280;52765;52.258;21.052;2023-01-28T02:50:15;101383.63;;;1.60;100.00
65997;BME280;52765;52.258;21.052;2023-01-28T02:58:51;101398.03;;;1.55;100.00
65997;BME280;52765;52.258;21.052;2023-01-28T03:01:41;101390.13;;;1.53;100.00
65997;BME280;52765;52.258;21.052;2023-01-28T03:04:19;101396.19;;;1.57;100.00
65997;BME280;52765;52.258;21.052;2023-01-28T03:06:53;101392.66;;;1.56;100.00
65997;BME280;52765;52.258;21.052;2023-01-28T03:09:21;101397.19;;;1.54;100.00
65997;BME280;52765;52.258;21.052;2023-01-28T03:12:03;101394.44;;;1.56;100.00
65997;BME280;52765;52.258;21.052;2023-01-28T03:14:51;101397.88;;;1.58;100.00
65997;BME280;52765;52.258;21.052;2023-01-28T03:18:04;101399.84;;;1.54;100.00
65997;BME280;52765;52.258;21.052;2023-01-28T03:23:47;101396.97;;;1.59;100.00
65997;BME280;52765;52.258;21.052;2023-01-28T03:26:40;101402.34;;;1.57;100.00
65997;BME280;52765;52.258;21.052;2023-01-28T03:29:28;101391.66;;;1.59;100.00
65997;BME280;52765;52.258;21.052;2023-01-28T03:32:14;101397.81;;;1.59;100.00
65997;BME280;52765;52.258;21.052;2023-01-28T03:34:59;101393.47;;;1.58;100.00
65997;BME280;52765;52.258;21.052;2023-01-28T03:37:43;101390.81;;;1.58;100.00
65997;BME280;52765;52.258;21.052;2023-01-28T03:40:10;101386.13;;;1.63;100.00
65997;BME280;52765;52.258;21.052;2023-01-28T03:42:35;101389.56;;;1.65;100.00
65997;BME280;52765;52.258;21.052;2023-01-28T03:45:01;101387.81;;;1.64;100.00
65997;BME280;52765;52.258;21.052;2023-01-28T03:47:30;101392.28;;;1.64;100.00
65997;BME280;52765;52.258;21.052;2023-01-28T03:49:57;101395.38;;;1.55;100.00
65997;BME280;52765;52.258;21.052;2023-01-28T03:52:29;101398.09;;;1.53;100.00
65997;BME280;52765;52.258;21.052;2023-01-28T03:54:56;101403.41;;;1.53;100.00
65997;BME280;52765;52.258;21.052;2023-01-28T03:57:26;101397.03;;;1.57;100.00
65997;BME280;52765;52.258;21.052;2023-01-28T03:59:52;101384.81;;;1.53;100.00
65997;BME280;52765;52.258;21.052;2023-01-28T04:02:20;101393.53;;;1.57;100.00
65997;BME280;52765;52.258;21.052;2023-01-28T04:04:47;101395.53;;;1.52;100.00
65997;BME280;52765;52.258;21.052;2023-01-28T10:32:36;101493.44;;;1.59;100.00
65997;BME280;52765;52.258;21.052;2023-01-28T10:35:03;101490.84;;;1.58;100.00
65997;BME280;52765;52.258;21.052;2023-01-28T10:37:33;101496.53;;;1.50;100.00
65997;BME280;52765;52.258;21.052;2023-01-28T10:40:02;101494.00;;;1.47;100.00
65997;BME280;52765;52.258;21.052;2023-01-28T10:42:31;101494.66;;;1.52;100.00
65997;BME280;52765;52.258;21.052;2023-01-28T10:45:23;101492.66;;;1.57;100.00
65997;BME280;52765;52.258;21.052;2023-01-28T10:47:51;101488.13;;;1.59;100.00
65997;BME280;52765;52.258;21.052;2023-01-28T10:50:24;101482.81;;;1.59;100.00
65997;BME280;52765;52.258;21.052;2023-01-28T10:53:02;101480.16;;;1.59;100.00
65997;BME280;52765;52.258;21.052;2023-01-28T10:55:43;101479.22;;;1.60;100.00
65997;BME280;52765;52.258;21.052;2023-01-28T10:58:17;101485.97;;;1.67;100.00
65997;BME280;52765;52.258;21.052;2023-01-28T11:00:45;101483.38;;;1.66;100.00
65997;BME280;52765;52.258;21.052;2023-01-28T11:03:20;101490.38;;;1.69;100.00
65997;BME280;52765;52.258;21.052;2023-01-28T11:05:54;101490.94;;;1.75;100.00
65997;BME280;52765;52.258;21.052;2023-01-28T11:08:21;101473.31;;;1.73;100.00
65997;BME280;52765;52.258;21.052;2023-01-28T11:10:48;101472.34;;;1.75;100.00
65997;BME280;52765;52.258;21.052;2023-01-28T11:13:21;101470.19;;;1.83;100.00
65997;BME280;52765;52.258;21.052;2023-01-28T11:15:49;101471.97;;;1.83;100.00
65997;BME280;52765;52.258;21.052;2023-01-28T11:18:24;101469.28;;;1.83;100.00
65997;BME280;52765;52.258;21.052;2023-01-28T11:20:54;101471.75;;;1.88;100.00
65997;BME280;52765;52.258;21.052;2023-01-28T11:26:33;101470.31;;;1.80;100.00
65997;BME280;52765;52.258;21.052;2023-01-28T11:29:00;101472.28;;;1.77;100.00
65997;BME280;52765;52.258;21.052;2023-01-28T11:31:26;101470.31;;;1.80;100.00
65997;BME280;52765;52.258;21.052;2023-01-28T11:36:20;101464.78;;;1.66;100.00
65997;BME280;52765;52.258;21.052;2023-01-28T11:38:58;101461.84;;;1.72;100.00
65997;BME280;52765;52.258;21.052;2023-01-28T11:41:32;101457.03;;;1.80;100.00
65997;BME280;52765;52.258;21.052;2023-01-28T11:43:59;101453.53;;;1.80;100.00
65997;BME280;52765;52.258;21.052;2023-01-28T11:49:06;101451.44;;;1.87;99.56
65997;BME280;52765;52.258;21.052;2023-01-28T11:54:08;101459.41;;;1.87;99.33
65997;BME280;52765;52.258;21.052;2023-01-28T11:56:52;101451.78;;;1.79;100.00
65997;BME280;52765;52.258;21.052;2023-01-28T12:05:45;101449.94;;;1.62;100.00
65997;BME280;52765;52.258;21.052;2023-01-28T12:27:38;101453.81;;;1.74;100.00
65997;BME280;52765;52.258;21.052;2023-01-28T12:35:34;101449.41;;;1.73;98.74
65997;BME280;52765;52.258;21.052;2023-01-28T12:38:30;101448.50;;;1.74;98.82
65997;BME280;52765;52.258;21.052;2023-01-28T12:41:19;101447.16;;;1.65;99.54
65997;BME280;52765;52.258;21.052;2023-01-28T12:44:01;101443.31;;;1.71;98.96
65997;BME280;52765;52.258;21.052;2023-01-28T12:49:55;101451.22;;;1.72;98.11
65997;BME280;52765;52.258;21.052;2023-01-28T12:52:14;101447.78;;;1.70;97.37
65997;BME280;52765;52.258;21.052;2023-01-28T12:57:26;101453.38;;;1.64;98.64
65997;BME280;52765;52.258;21.052;2023-01-28T13:00:02;101451.28;;;1.71;99.09
65997;BME280;52765;52.258;21.052;2023-01-28T13:02:39;101457.47;;;1.71;98.93
65997;BME280;52765;52.258;21.052;2023-01-28T13:05:11;101456.53;;;1.72;98.20
65997;BME280;52765;52.258;21.052;2023-01-28T13:07:58;101448.91;;;1.64;98.28
65997;BME280;52765;52.258;21.052;2023-01-28T13:10:31;101449.88;;;1.63;99.08
65997;BME280;52765;52.258;21.052;2023-01-28T13:13:00;101450.66;;;1.65;98.46
65997;BME280;52765;52.258;21.052;2023-01-28T13:15:27;101440.44;;;1.56;97.29
65997;BME280;52765;52.258;21.052;2023-01-28T13:18:04;101447.03;;;1.66;98.92
65997;BME280;52765;52.258;21.052;2023-01-28T13:20:47;101446.69;;;1.74;96.76
65997;BME280;52765;52.258;21.052;2023-01-28T13:23:35;101463.16;;;1.63;97.40
65997;BME280;52765;52.258;21.052;2023-01-28T13:26:26;101459.94;;;1.57;98.35
65997;BME280;52765;52.258;21.052;2023-01-28T13:28:53;101451.44;;;1.48;98.00
65997;BME280;52765;52.258;21.052;2023-01-28T13:31:21;101453.97;;;1.52;98.36
65997;BME280;52765;52.258;21.052;2023-01-28T13:39:06;101461.69;;;1.56;99.60
65997;BME280;52765;52.258;21.052;2023-01-28T13:41:47;101461.19;;;1.48;100.00
65997;BME280;52765;52.258;21.052;2023-01-28T13:44:27;101461.78;;;1.55;100.00
65997;BME280;52765;52.258;21.052;2023-01-28T13:47:29;101452.53;;;1.63;100.00
65997;BME280;52765;52.258;21.052;2023-01-28T13:49:59;101462.34;;;1.61;100.00
65997;BME280;52765;52.258;21.052;2023-01-28T13:52:29;101455.00;;;1.66;100.00
65997;BME280;52765;52.258;21.052;2023-01-28T14:20:03;101456.63;;;1.52;99.47
65997;BME280;52765;52.258;21.052;2023-01-28T14:22:29;101453.72;;;1.56;99.36
65997;BME280;52765;52.258;21.052;2023-01-28T14:24:59;101440.53;;;1.55;98.99
65997;BME280;52765;52.258;21.052;2023-01-28T14:27:31;101457.03;;;1.61;98.41
65997;BME280;52765;52.258;21.052;2023-01-28T14:32:49;101445.56;;;1.61;100.00
65997;BME280;52765;52.258;21.052;2023-01-28T14:35:21;101448.00;;;1.65;99.57
65997;BME280;52765;52.258;21.052;2023-01-28T14:37:48;101458.69;;;1.64;99.35
65997;BME280;52765;52.258;21.052;2023-01-28T14:40:15;101449.13;;;1.60;98.84
65997;BME280;52765;52.258;21.052;2023-01-28T14:42:44;101454.31;;;1.63;98.75
65997;BME280;52765;52.258;21.052;2023-01-28T14:45:33;101452.34;;;1.66;99.23
65997;BME280;52765;52.258;21.052;2023-01-28T14:48:10;101461.00;;;1.72;97.62
65997;BME280;52765;52.258;21.052;2023-01-28T14:51:04;101459.19;;;1.72;96.73
65997;BME280;52765;52.258;21.052;2023-01-28T14:59:42;101457.34;;;1.55;97.23
65997;BME280;52765;52.258;21.052;2023-01-28T15:02:17;101463.44;;;1.57;97.23
65997;BME280;52765;52.258;21.052;2023-01-28T15:04:44;101451.16;;;1.55;96.48
65997;BME280;52765;52.258;21.052;2023-01-28T15:07:24;101453.72;;;1.56;96.73
65997;BME280;52765;52.258;21.052;2023-01-28T15:12:42;101460.00;;;1.55;96.26
65997;BME280;52765;52.258;21.052;2023-01-28T15:15:37;101472.38;;;1.55;96.01
65997;BME280;52765;52.258;21.052;2023-01-28T15:18:15;101470.31;;;1.42;98.31
65997;BME280;52765;52.258;21.052;2023-01-28T15:20:47;101468.66;;;1.40;99.75
65997;BME280;52765;52.258;21.052;2023-01-28T15:23:16;101486.03;;;1.47;99.51
65997;BME280;52765;52.258;21.052;2023-01-28T15:25:43;101481.72;;;1.44;98.30
65997;BME280;52765;52.258;21.052;2023-01-28T15:28:26;101474.84;;;1.40;98.24
65997;BME280;52765;52.258;21.052;2023-01-28T15:30:53;101475.97;;;1.35;97.77
65997;BME280;52765;52.258;21.052;2023-01-28T15:33:20;101477.78;;;1.34;98.97
65997;BME280;52765;52.258;21.052;2023-01-28T15:35:53;101484.75;;;1.37;99.14
65997;BME280;52765;52.258;21.052;2023-01-28T15:38:21;101481.22;;;1.36;100.00
65997;BME280;52765;52.258;21.052;2023-01-28T15:40:51;101480.50;;;1.33;97.99
65997;BME280;52765;52.258;21.052;2023-01-28T15:43:21;101473.38;;;1.33;99.53
65997;BME280;52765;52.258;21.052;2023-01-28T15:45:50;101481.50;;;1.30;99.41
65997;BME280;52765;52.258;21.052;2023-01-28T15:48:19;101480.56;;;1.31;97.99
65997;BME280;52765;52.258;21.052;2023-01-28T15:50:45;101482.34;;;1.31;98.16
65997;BME280;52765;52.258;21.052;2023-01-28T15:53:12;101481.94;;;1.40;97.86
65997;BME280;52765;52.258;21.052;2023-01-28T15:55:43;101486.13;;;1.45;97.03
65997;BME280;52765;52.258;21.052;2023-01-28T16:00:45;101481.84;;;1.41;95.06
65997;BME280;52765;52.258;21.052;2023-01-28T16:03:19;101475.97;;;1.35;92.18
65997;BME280;52765;52.258;21.052;2023-01-28T16:11:26;101484.13;;;0.90;88.91
65997;BME280;52765;52.258;21.052;2023-01-28T16:13:54;101489.50;;;0.89;90.80
65997;BME280;52765;52.258;21.052;2023-01-28T16:16:27;101492.69;;;0.97;92.00
65997;BME280;52765;52.258;21.052;2023-01-28T16:18:53;101495.88;;;1.05;92.90
65997;BME280;52765;52.258;21.052;2023-01-28T16:21:34;101489.22;;;1.16;94.01
65997;BME280;52765;52.258;21.052;2023-01-28T16:24:17;101496.03;;;1.21;95.37
65997;BME280;52765;52.258;21.052;2023-01-28T16:27:04;101492.34;;;1.25;95.84
65997;BME280;52765;52.258;21.052;2023-01-28T16:29:31;101490.13;;;1.35;96.03
65997;BME280;52765;52.258;21.052;2023-01-28T16:31:58;101482.81;;;1.40;95.76
65997;BME280;52765;52.258;21.052;2023-01-28T16:34:24;101491.50;;;1.44;94.87
65997;BME280;52765;52.258;21.052;2023-01-28T16:36:54;101482.88;;;1.39;89.46
65997;BME280;52765;52.258;21.052;2023-01-28T16:39:21;101481.28;;;1.35;89.16
65997;BME280;52765;52.258;21.052;2023-01-28T16:41:46;101486.81;;;1.30;88.69
65997;BME280;52765;52.258;21.052;2023-01-28T16:44:14;101489.59;;;1.27;88.51
65997;BME280;52765;52.258;21.052;2023-01-28T16:46:41;101487.59;;;1.32;88.83
65997;BME280;52765;52.258;21.052;2023-01-28T16:49:08;101490.06;;;1.37;88.92
65997;BME280;52765;52.258;21.052;2023-01-28T16:51:39;101485.81;;;1.33;89.49
65997;BME280;52765;52.258;21.052;2023-01-28T16:54:10;101501.66;;;1.34;88.23
65997;BME280;52765;52.258;21.052;2023-01-28T16:56:40;101504.53;;;1.29;89.16
65997;BME280;52765;52.258;21.052;2023-01-28T16:59:09;101494.72;;;1.32;89.26
65997;BME280;52765;52.258;21.052;2023-01-28T17:01:35;101497.78;;;1.22;89.05
65997;BME280;52765;52.258;21.052;2023-01-28T17:04:00;101490.22;;;1.13;87.84
65997;BME280;52765;52.258;21.052;2023-01-28T17:06:27;101496.59;;;1.09;87.44
65997;BME280;52765;52.258;21.052;2023-01-28T17:08:53;101498.72;;;1.01;88.14
65997;BME280;52765;52.258;21.052;2023-01-28T17:11:18;101499.25;;;1.09;88.09
65997;BME280;52765;52.258;21.052;2023-01-28T17:13:44;101499.91;;;1.14;88.16
65997;BME280;52765;52.258;21.052;2023-01-28T17:16:09;101490.13;;;1.15;88.87
65997;BME280;52765;52.258;21.052;2023-01-28T17:18:35;101485.72;;;1.15;89.85
65997;BME280;52765;52.258;21.052;2023-01-28T17:21:04;101495.81;;;1.07;89.96
65997;BME280;52765;52.258;21.052;2023-01-28T17:23:33;101484.03;;;1.13;89.93
65997;BME280;52765;52.258;21.052;2023-01-28T17:26:04;101500.22;;;1.27;90.09
65997;BME280;52765;52.258;21.052;2023-01-28T17:28:29;101490.06;;;1.37;89.87
65997;BME280;52765;52.258;21.052;2023-01-28T17:30:55;101482.88;;;1.39;89.42
65997;BME280;52765;52.258;21.052;2023-01-28T17:33:21;101489.41;;;1.51;88.66
65997;BME280;52765;52.258;21.052;2023-01-28T17:35:46;101500.81;;;1.53;87.13
65997;BME280;52765;52.258;21.052;2023-01-28T17:38:12;101510.78;;;1.47;86.07
65997;BME280;52765;52.258;21.052;2023-01-28T17:40:38;101503.69;;;1.48;85.09
65997;BME280;52765;52.258;21.052;2023-01-28T17:43:04;101506.78;;;1.39;79.73
65997;BME280;52765;52.258;21.052;2023-01-28T17:45:31;101498.34;;;1.29;81.00
65997;BME280;52765;52.258;21.052;2023-01-28T17:47:56;101500.16;;;1.28;81.55
65997;BME280;52765;52.258;21.052;2023-01-28T17:50:25;101502.63;;;1.13;82.66
65997;BME280;52765;52.258;21.052;2023-01-28T17:52:55;101504.63;;;1.07;83.57
65997;BME280;52765;52.258;21.052;2023-01-28T17:55:27;101514.03;;;1.15;84.40
65997;BME280;52765;52.258;21.052;2023-01-28T17:57:53;101516.41;;;1.21;83.25
65997;BME280;52765;52.258;21.052;2023-01-28T18:00:19;101503.66;;;1.29;83.71
65997;BME280;52765;52.258;21.052;2023-01-28T18:02:48;101501.78;;;1.31;80.53
65997;BME280;52765;52.258;21.052;2023-01-28T18:05:14;101507.03;;;1.33;78.97
65997;BME280;52765;52.258;21.052;2023-01-28T18:07:39;101501.72;;;1.33;76.98
65997;BME280;52765;52.258;21.052;2023-01-28T18:10:05;101512.56;;;1.28;74.86
65997;BME280;52765;52.258;21.052;2023-01-28T18:12:31;101522.56;;;1.21;75.02
65997;BME280;52765;52.258;21.052;2023-01-28T18:14:56;101521.34;;;1.09;76.86
65997;BME280;52765;52.258;21.052;2023-01-28T18:17:22;101522.13;;;1.11;77.47
65997;BME280;52765;52.258;21.052;2023-01-28T18:19:56;101524.06;;;1.08;77.49
65997;BME280;52765;52.258;21.052;2023-01-28T18:22:22;101529.44;;;1.06;77.88
65997;BME280;52765;52.258;21.052;2023-01-28T18:24:48;101532.66;;;1.13;78.09
65997;BME280;52765;52.258;21.052;2023-01-28T18:27:13;101534.78;;;1.05;79.21
65997;BME280;52765;52.258;21.052;2023-01-28T18:29:39;101534.59;;;1.09;80.01
65997;BME280;52765;52.258;21.052;2023-01-28T18:32:04;101545.03;;;1.14;80.24
65997;BME280;52765;52.258;21.052;2023-01-28T18:34:31;101537.78;;;1.18;81.34
65997;BME280;52765;52.258;21.052;2023-01-28T18:36:58;101539.22;;;1.25;81.70
65997;BME280;52765;52.258;21.052;2023-01-28T18:39:26;101545.16;;;1.32;79.40
65997;BME280;52765;52.258;21.052;2023-01-28T18:41:54;101542.84;;;1.24;77.31
65997;BME280;52765;52.258;21.052;2023-01-28T18:44:22;101532.56;;;0.96;77.46
65997;BME280;52765;52.258;21.052;2023-01-28T18:46:48;101535.00;;;0.80;79.84
65997;BME280;52765;52.258;21.052;2023-01-28T18:49:14;101531.22;;;0.85;80.09
65997;BME280;52765;52.258;21.052;2023-01-28T18:51:40;101539.72;;;0.94;80.10
65997;BME280;52765;52.258;21.052;2023-01-28T18:54:10;101542.91;;;1.02;80.29
65997;BME280;52765;52.258;21.052;2023-01-28T18:56:36;101532.31;;;1.02;81.41
65997;BME280;52765;52.258;21.052;2023-01-28T18:59:04;101535.75;;;1.04;82.30
65997;BME280;52765;52.258;21.052;2023-01-28T19:01:31;101537.25;;;1.09;82.93
65997;BME280;52765;52.258;21.052;2023-01-28T19:03:57;101530.63;;;0.99;84.31
65997;BME280;52765;52.258;21.052;2023-01-28T19:06:25;101526.72;;;0.87;86.54
65997;BME280;52765;52.258;21.052;2023-01-28T19:09:00;101512.31;;;0.72;85.54
65997;BME280;52765;52.258;21.052;2023-01-28T19:11:28;101517.81;;;0.68;85.02
65997;BME280;52765;52.258;21.052;2023-01-28T19:13:53;101517.00;;;0.66;84.12
65997;BME280;52765;52.258;21.052;2023-01-28T19:16:20;101518.09;;;0.62;84.30
65997;BME280;52765;52.258;21.052;2023-01-28T19:18:54;101526.16;;;0.59;85.36
65997;BME280;52765;52.258;21.052;2023-01-28T19:21:20;101525.69;;;0.49;85.72
65997;BME280;52765;52.258;21.052;2023-01-28T19:23:46;101529.06;;;0.52;85.06
65997;BME280;52765;52.258;21.052;2023-01-28T19:26:12;101532.28;;;0.39;86.12
65997;BME280;52765;52.258;21.052;2023-01-28T19:28:38;101531.53;;;0.35;86.54
65997;BME280;52765;52.258;21.052;2023-01-28T19:31:04;101538.13;;;0.25;88.08
65997;BME280;52765;52.258;21.052;2023-01-28T19:33:30;101527.34;;;0.07;88.43
65997;BME280;52765;52.258;21.052;2023-01-28T19:35:58;101527.91;;;0.15;88.40
65997;BME280;52765;52.258;21.052;2023-01-28T19:38:26;101534.50;;;0.27;87.44
65997;BME280;52765;52.258;21.052;2023-01-28T19:40:54;101546.75;;;0.30;86.05
65997;BME280;52765;52.258;21.052;2023-01-28T19:43:21;101535.75;;;0.18;85.59
65997;BME280;52765;52.258;21.052;2023-01-28T19:45:58;101546.81;;;0.28;85.98
65997;BME280;52765;52.258;21.052;2023-01-28T19:48:24;101550.16;;;0.33;84.51
65997;BME280;52765;52.258;21.052;2023-01-28T19:50:51;101549.66;;;0.24;83.83
65997;BME280;52765;52.258;21.052;2023-01-28T19:53:17;101540.78;;;0.25;83.42
65997;BME280;52765;52.258;21.052;2023-01-28T19:55:44;101554.91;;;0.25;81.42
65997;BME280;52765;52.258;21.052;2023-01-28T19:58:09;101559.72;;;0.15;79.62
65997;BME280;52765;52.258;21.052;2023-01-28T20:00:37;101556.38;;;0.10;79.92
65997;BME280;52765;52.258;21.052;2023-01-28T20:03:03;101556.91;;;-0.04;79.55
65997;BME280;52765;52.258;21.052;2023-01-28T20:05:35;101561.50;;;-0.09;80.39
65997;BME280;52765;52.258;21.052;2023-01-28T20:08:01;101565.03;;;-0.08;81.05
65997;BME280;52765;52.258;21.052;2023-01-28T20:10:30;101558.00;;;-0.09;80.70
65997;BME280;52765;52.258;21.052;2023-01-28T20:12:55;101551.72;;;-0.07;81.93
65997;BME280;52765;52.258;21.052;2023-01-28T20:15:21;101563.94;;;-0.03;81.36
65997;BME280;52765;52.258;21.052;2023-01-28T20:17:46;101559.50;;;-0.02;77.04
65997;BME280;52765;52.258;21.052;2023-01-28T20:20:12;101554.59;;;0.11;77.03
65997;BME280;52765;52.258;21.052;2023-01-28T20:22:39;101555.25;;;0.16;76.14
65997;BME280;52765;52.258;21.052;2023-01-28T20:25:06;101557.78;;;0.19;74.75
65997;BME280;52765;52.258;21.052;2023-01-28T20:27:32;101558.47;;;0.24;75.37
65997;BME280;52765;52.258;21.052;2023-01-28T20:29:58;101549.56;;;0.27;74.21
65997;BME280;52765;52.258;21.052;2023-01-28T20:32:23;101561.44;;;0.39;73.93
65997;BME280;52765;52.258;21.052;2023-01-28T20:34:50;101554.34;;;0.39;73.46
65997;BME280;52765;52.258;21.052;2023-01-28T20:37:16;101559.13;;;0.51;74.34
65997;BME280;52765;52.258;21.052;2023-01-28T20:39:41;101573.16;;;0.55;73.94
65997;BME280;52765;52.258;21.052;2023-01-28T20:42:08;101573.69;;;0.41;73.07
65997;BME280;52765;52.258;21.052;2023-01-28T20:44:35;101575.28;;;0.23;74.80
65997;BME280;52765;52.258;21.052;2023-01-28T20:47:01;101571.09;;;0.17;74.75
65997;BME280;52765;52.258;21.052;2023-01-28T20:49:27;101574.50;;;0.21;74.00
65997;BME280;52765;52.258;21.052;2023-01-28T20:51:53;101571.78;;;0.23;73.54
65997;BME280;52765;52.258;21.052;2023-01-28T20:54:19;101578.81;;;0.24;74.60
65997;BME280;52765;52.258;21.052;2023-01-28T20:56:48;101575.84;;;0.09;76.20
65997;BME280;52765;52.258;21.052;2023-01-28T20:59:14;101587.16;;;-0.09;77.58
65997;BME280;52765;52.258;21.052;2023-01-28T21:01:40;101587.19;;;-0.11;77.60
65997;BME280;52765;52.258;21.052;2023-01-28T21:04:07;101578.47;;;-0.13;77.90
65997;BME280;52765;52.258;21.052;2023-01-28T21:06:33;101595.09;;;-0.09;79.79
65997;BME280;52765;52.258;21.052;2023-01-28T21:08:58;101586.34;;;-0.11;79.19
65997;BME280;52765;52.258;21.052;2023-01-28T21:11:25;101596.25;;;-0.16;81.04
65997;BME280;52765;52.258;21.052;2023-01-28T21:13:51;101592.59;;;-0.14;79.99
65997;BME280;52765;52.258;21.052;2023-01-28T21:16:17;101578.69;;;-0.43;78.43
65997;BME280;52765;52.258;21.052;2023-01-28T21:18:48;101577.56;;;-0.37;78.37
65997;BME280;52765;52.258;21.052;2023-01-28T21:21:21;101585.53;;;-0.37;79.01
65997;BME280;52765;52.258;21.052;2023-01-28T21:23:47;101584.03;;;-0.44;78.85